KABY/ABY METAR and TAF weather

Enter ICAO airport designator
Station Type Date Time Source
KABY METAR 2019/05/21 20:53 UTC NOAA

KABY 212053Z 20012KT 10SM CLR 34/16 A2993


Station Type Date Time Source
KABY Decoded METAR 2019/05/21 20:53 UTC NOAA

ALBANY SOUTHWEST GEORGIA, GA, United States (KABY) 31-32N 084-12W 58M
May 21, 2019 - 04:53 PM EDT / 2019.05.21 2053 UTC
Wind: from the SSW (200 degrees) at 14 MPH (12 KT):0
Visibility: 10 mile(s):0
Sky conditions: clear
Temperature: 93 F (34 C)
Dew Point: 60 F (16 C)
Relative Humidity: 34%
Pressure (altimeter): 29.93 in. Hg (1013 hPa)
ob: KABY 212053Z 20012KT 10SM CLR 34/16 A2993
cycle: 21

Station Type Date Time Source
KABY TAF 2019/05/21 18:46 UTC NOAA

TAF KABY 211744Z 2118/2218 18008KT P6SM SCT060
FM220100 VRB02KT P6SM SKC
FM221400 18004KT P6SM SCT250
FM221700 16005KT P6SM SCT040

Example: see airport list